createdAt,value
2023-01-12T00:01:38.187Z,100652.84
2023-01-12T00:04:06.453Z,100644.13
2023-01-12T00:06:35.599Z,100651.81
2023-01-12T00:09:06.395Z,100648.81
2023-01-12T00:11:34.397Z,100648.81
2023-01-12T00:14:02.294Z,100655.16
2023-01-12T00:16:37.409Z,100642.13
2023-01-12T00:19:10.835Z,100652.78
2023-01-12T00:21:56.375Z,100650.97
2023-01-12T00:24:25.637Z,100646.88
2023-01-12T00:26:53.807Z,100648.06
2023-01-12T00:29:22.061Z,100655.00
2023-01-12T00:31:49.944Z,100650.69
2023-01-12T00:34:17.962Z,100641.84
2023-01-12T00:36:47.977Z,100656.88
2023-01-12T00:39:16.859Z,100659.53
2023-01-12T00:42:02.171Z,100644.91
2023-01-12T00:44:47.324Z,100654.63
2023-01-12T00:47:15.699Z,100650.41
2023-01-12T00:49:43.781Z,100649.47
2023-01-12T00:52:21.630Z,100652.94
2023-01-12T00:54:57.553Z,100651.84
2023-01-12T00:57:25.375Z,100644.28
2023-01-12T00:59:55.172Z,100638.09
2023-01-12T01:02:23.474Z,100635.56
2023-01-12T01:04:51.349Z,100635.66
2023-01-12T01:07:21.487Z,100636.13
2023-01-12T01:09:49.297Z,100627.28
2023-01-12T01:12:17.041Z,100629.28
2023-01-12T01:14:44.802Z,100632.63
2023-01-12T01:17:12.476Z,100626.34
2023-01-12T01:19:40.175Z,100619.47
2023-01-12T01:22:07.905Z,100608.97
2023-01-12T01:24:36.963Z,100611.38
2023-01-12T01:27:04.755Z,100614.72
2023-01-12T01:29:32.391Z,100606.72
2023-01-12T01:32:00.022Z,100595.88
2023-01-12T01:34:27.749Z,100592.16
2023-01-12T01:36:55.482Z,100593.09
2023-01-12T01:39:23.231Z,100587.50
2023-01-12T01:41:52.665Z,100583.19
2023-01-12T01:44:52.250Z,100579.63
2023-01-12T01:47:26.972Z,100573.59
2023-01-12T01:49:55.991Z,100568.47
2023-01-12T01:52:27.117Z,100569.28
2023-01-12T01:54:56.582Z,100563.59
2023-01-12T01:57:27.881Z,100558.91
2023-01-12T01:59:56.866Z,100561.44
2023-01-12T02:02:26.294Z,100564.09
2023-01-12T02:04:54.295Z,100550.91
2023-01-12T02:07:22.076Z,100537.75
2023-01-12T02:09:49.774Z,100544.56
2023-01-12T02:12:35.003Z,100535.72
2023-01-12T02:15:21.650Z,100536.81
2023-01-12T02:17:57.976Z,100541.81
2023-01-12T02:21:01.443Z,100538.22
2023-01-12T02:23:51.031Z,100522.69
2023-01-12T02:26:44.870Z,100521.00
2023-01-12T02:29:45.142Z,100512.97
2023-01-12T02:32:21.088Z,100515.38
2023-01-12T02:34:55.328Z,100511.06
2023-01-12T02:37:29.870Z,100512.66
2023-01-12T02:40:00.811Z,100499.47
2023-01-12T02:42:44.059Z,100481.25
2023-01-12T02:45:25.564Z,100474.06
2023-01-12T02:47:57.965Z,100477.66
2023-01-12T02:50:30.933Z,100469.75
2023-01-12T02:53:04.216Z,100474.81
2023-01-12T02:55:32.367Z,100463.31
2023-01-12T02:58:01.313Z,100460.69
2023-01-12T03:00:29.570Z,100456.38
2023-01-12T03:02:58.703Z,100452.09
2023-01-12T03:05:26.369Z,100446.81
2023-01-12T03:07:55.576Z,100430.19
2023-01-12T03:10:41.570Z,100440.72
2023-01-12T03:13:11.679Z,100442.38
2023-01-12T03:15:41.780Z,100439.84
2023-01-12T03:18:16.046Z,100434.69
2023-01-12T03:20:48.463Z,100430.19
2023-01-12T03:23:19.934Z,100430.28
2023-01-12T03:25:48.253Z,100431.22
2023-01-12T03:28:18.312Z,100436.50
2023-01-12T03:30:48.039Z,100431.94
2023-01-12T03:33:17.216Z,100420.69
2023-01-12T03:35:51.714Z,100420.69
2023-01-12T03:38:23.310Z,100423.94
2023-01-12T03:40:54.176Z,100416.88
2023-01-12T03:43:25.390Z,100417.72
2023-01-12T03:45:58.659Z,100398.59
2023-01-12T03:48:31.865Z,100400.13
2023-01-12T03:51:01.863Z,100390.78
2023-01-12T03:53:30.868Z,100387.44
2023-01-12T03:56:02.005Z,100377.88
2023-01-12T03:58:29.742Z,100377.75
2023-01-12T04:00:57.544Z,100366.38
2023-01-12T04:03:25.287Z,100369.63
2023-01-12T04:05:54.552Z,100362.56
2023-01-12T04:08:22.255Z,100363.97
2023-01-12T04:10:49.987Z,100357.03
2023-01-12T04:13:17.662Z,100349.13
2023-01-12T04:15:45.441Z,100351.78
2023-01-12T04:18:13.820Z,100348.44
2023-01-12T04:20:41.710Z,100331.88
2023-01-12T04:23:09.770Z,100316.09
2023-01-12T04:25:37.672Z,100318.50
2023-01-12T04:28:05.633Z,100294.81
2023-01-12T04:30:34.500Z,100308.81
2023-01-12T04:33:08.031Z,100292.41
2023-01-12T04:35:35.825Z,100289.66
2023-01-12T04:38:06.877Z,100286.91
2023-01-12T04:40:36.031Z,100278.03
2023-01-12T04:43:07.308Z,100271.09
2023-01-12T04:45:37.397Z,100250.53
2023-01-12T04:48:06.365Z,100259.88
2023-01-12T04:50:34.146Z,100265.34
2023-01-12T04:53:03.397Z,100260.09
2023-01-12T04:55:31.330Z,100261.19
2023-01-12T04:58:00.338Z,100239.41
2023-01-12T05:00:28.565Z,100220.16
2023-01-12T05:02:59.217Z,100224.47
2023-01-12T05:05:26.954Z,100221.69
2023-01-12T05:08:11.543Z,100213.31
2023-01-12T05:10:39.265Z,100184.22
2023-01-12T05:13:08.273Z,100168.69
2023-01-12T05:15:35.942Z,100157.19
2023-01-12T05:18:03.563Z,100138.91
2023-01-12T05:20:31.176Z,100138.06
2023-01-12T05:22:58.818Z,100119.66
2023-01-12T05:25:26.801Z,100108.41
2023-01-12T05:27:55.912Z,100116.03
2023-01-12T05:30:25.108Z,100099.41
2023-01-12T05:32:53.008Z,100092.34
2023-01-12T05:35:20.790Z,100078.22
2023-01-12T05:37:48.511Z,100091.38
2023-01-12T05:40:16.619Z,100073.94
2023-01-12T05:43:01.931Z,100077.53
2023-01-12T05:45:30.953Z,100071.28
2023-01-12T05:47:59.378Z,100079.19
2023-01-12T05:50:27.333Z,100071.28
2023-01-12T05:52:55.720Z,100071.28
2023-01-12T05:55:23.429Z,100058.97
2023-01-12T05:57:51.197Z,100103.84
2023-01-12T06:00:19.934Z,100067.00
2023-01-12T06:02:49.107Z,100057.03
2023-01-12T06:05:17.044Z,100057.88
2023-01-12T06:07:44.749Z,100043.03
2023-01-12T06:10:13.185Z,100054.31
2023-01-12T06:12:57.429Z,100058.84
2023-01-12T06:15:25.121Z,100053.44
2023-01-12T06:17:54.203Z,100052.50
2023-01-12T06:20:21.919Z,100061.22
2023-01-12T06:22:49.617Z,100064.44
2023-01-12T06:25:17.529Z,100061.56
2023-01-12T06:27:45.324Z,100057.97
2023-01-12T06:30:13.835Z,100040.38
2023-01-12T06:32:41.880Z,100053.25
2023-01-12T06:35:19.119Z,100072.38
2023-01-12T06:37:47.835Z,100067.38
2023-01-12T06:40:15.776Z,100064.25
2023-01-12T06:42:43.526Z,100056.34
2023-01-12T06:45:12.360Z,100057.19
2023-01-12T06:47:46.022Z,100060.66
2023-01-12T06:50:15.248Z,100065.91
2023-01-12T06:52:43.027Z,100065.78
2023-01-12T06:55:11.037Z,100062.78
2023-01-12T06:57:38.701Z,100064.31
2023-01-12T07:00:07.918Z,100056.41
2023-01-12T07:02:35.667Z,100060.84
2023-01-12T07:05:03.365Z,100065.13
2023-01-12T07:07:32.566Z,100058.91
2023-01-12T07:10:00.219Z,100062.50
2023-01-12T07:12:27.837Z,100053.78
2023-01-12T07:14:56.201Z,100051.97
2023-01-12T07:17:23.884Z,100054.59
2023-01-12T07:19:51.672Z,100071.94
2023-01-12T07:22:19.374Z,100048.25
2023-01-12T07:24:48.554Z,100062.13
2023-01-12T07:27:16.253Z,100066.44
2023-01-12T07:29:43.976Z,100065.34
2023-01-12T07:32:11.721Z,100067.00
2023-01-12T07:34:39.362Z,100059.81
2023-01-12T07:37:07.683Z,100063.38
2023-01-12T07:39:35.353Z,100067.59
2023-01-12T07:42:21.731Z,100066.63
2023-01-12T07:44:49.447Z,100071.50
2023-01-12T07:47:17.159Z,100075.81
2023-01-12T07:49:44.888Z,100069.72
2023-01-12T07:52:12.938Z,100083.72
2023-01-12T07:54:40.851Z,100094.25
2023-01-12T07:57:10.640Z,100084.53
2023-01-12T07:59:38.447Z,100088.97
2023-01-12T08:02:06.794Z,100079.97
2023-01-12T08:04:34.613Z,100081.50
2023-01-12T08:07:02.359Z,100071.78
2023-01-12T08:09:30.344Z,100078.16
2023-01-12T08:11:58.052Z,100084.97
2023-01-12T08:14:30.380Z,100088.44
2023-01-12T08:17:01.644Z,100083.16
2023-01-12T08:19:32.933Z,100085.09
2023-01-12T08:22:03.068Z,100081.25
2023-01-12T08:24:34.855Z,100089.16
2023-01-12T08:27:04.848Z,100094.88
2023-01-12T08:29:39.947Z,100099.06
2023-01-12T08:34:37.622Z,100097.94
2023-01-12T08:37:07.354Z,100100.44
2023-01-12T08:39:35.634Z,100106.69
2023-01-12T08:42:03.616Z,100106.56
2023-01-12T08:44:33.917Z,100116.84
2023-01-12T08:47:04.434Z,100103.69
2023-01-12T08:49:33.185Z,100108.13
2023-01-12T08:52:01.295Z,100109.63
2023-01-12T08:54:29.134Z,100106.31
2023-01-12T08:56:56.893Z,100121.84
2023-01-12T08:59:25.551Z,100120.19
2023-01-12T09:01:53.340Z,100128.53
2023-01-12T09:04:22.461Z,100128.31
2023-01-12T09:06:50.114Z,100124.69
2023-01-12T09:09:19.983Z,100130.56
2023-01-12T09:11:48.870Z,100134.72
2023-01-12T09:14:17.202Z,100122.75
2023-01-12T09:16:45.063Z,100134.03
2023-01-12T09:19:12.986Z,100136.38
2023-01-12T09:21:43.633Z,100135.41
2023-01-12T09:24:11.948Z,100144.88
2023-01-12T09:26:40.782Z,100148.34
2023-01-12T09:29:08.932Z,100144.75
2023-01-12T09:31:37.716Z,100153.34
2023-01-12T09:34:05.513Z,100144.22
2023-01-12T09:36:34.803Z,100151.03
2023-01-12T09:39:04.418Z,100155.63
2023-01-12T09:41:51.087Z,100172.00
2023-01-12T09:44:38.187Z,100171.72
2023-01-12T09:47:09.991Z,100173.41
2023-01-12T09:49:40.743Z,100174.50
2023-01-12T09:52:14.616Z,100188.81
2023-01-12T09:54:43.884Z,100189.41
2023-01-12T09:57:28.991Z,100183.41
2023-01-12T09:59:59.509Z,100186.63
2023-01-12T10:02:27.801Z,100185.81
2023-01-12T10:04:57.318Z,100193.44
2023-01-12T10:07:25.057Z,100199.41
2023-01-12T10:09:54.362Z,100191.91
2023-01-12T10:12:27.155Z,100197.31
2023-01-12T10:15:09.858Z,100207.31
2023-01-12T10:17:51.436Z,100198.03
2023-01-12T10:20:24.924Z,100207.09
2023-01-12T10:22:54.768Z,100208.75
2023-01-12T10:25:32.239Z,100212.09
2023-01-12T10:28:01.668Z,100205.97
2023-01-12T10:30:31.738Z,100203.47
2023-01-12T10:33:00.036Z,100203.19
2023-01-12T10:35:27.795Z,100212.66
2023-01-12T10:37:56.773Z,100213.38
2023-01-12T10:40:29.060Z,100204.47
2023-01-12T10:43:23.892Z,100207.72
2023-01-12T10:46:13.302Z,100210.44
2023-01-12T10:48:43.719Z,100206.28
2023-01-12T10:51:24.264Z,100198.75
2023-01-12T10:53:54.418Z,100219.09
2023-01-12T10:56:29.331Z,100212.97
2023-01-12T10:59:00.740Z,100209.38
2023-01-12T11:01:44.070Z,100223.97
2023-01-12T11:04:15.392Z,100217.47
2023-01-12T11:06:44.595Z,100220.78
2023-01-12T11:09:20.443Z,100238.56
2023-01-12T11:11:54.537Z,100233.84
2023-01-12T11:14:27.721Z,100225.78
2023-01-12T11:17:00.907Z,100230.13
2023-01-12T11:19:30.959Z,100222.31
2023-01-12T11:22:05.041Z,100222.22
2023-01-12T11:24:37.218Z,100219.56
2023-01-12T11:27:14.426Z,100217.78
2023-01-12T11:29:46.866Z,100208.03
2023-01-12T11:32:19.379Z,100202.75
2023-01-12T11:34:55.826Z,100209.72
2023-01-12T11:37:24.164Z,100208.03
2023-01-12T11:39:54.895Z,100201.78
2023-01-12T11:42:44.007Z,100214.72
2023-01-12T11:45:15.283Z,100212.91
2023-01-12T11:47:48.416Z,100205.13
2023-01-12T11:50:18.479Z,100219.75
2023-01-12T11:52:46.593Z,100212.50
2023-01-12T11:55:16.031Z,100227.25
2023-01-12T11:57:52.236Z,100213.91
2023-01-12T12:00:30.418Z,100205.88
2023-01-12T12:03:10.573Z,100197.13
2023-01-12T12:05:43.888Z,100204.63
2023-01-12T12:08:21.003Z,100207.25
2023-01-12T12:10:53.295Z,100206.41
2023-01-12T12:13:29.386Z,100203.09
2023-01-12T12:16:14.032Z,100200.59
2023-01-12T12:18:52.250Z,100200.69
2023-01-12T12:21:34.667Z,100205.03
2023-01-12T12:24:10.251Z,100192.78
2023-01-12T12:26:40.701Z,100191.13
2023-01-12T12:29:25.345Z,100197.94
2023-01-12T12:32:05.676Z,100196.16
2023-01-12T12:34:51.266Z,100194.47
2023-01-12T12:37:22.654Z,100192.53
2023-01-12T12:39:57.182Z,100196.16
2023-01-12T12:43:00.948Z,100196.84
2023-01-12T12:45:38.591Z,100195.84
2023-01-12T12:48:11.017Z,100197.53
2023-01-12T12:50:42.215Z,100191.28
2023-01-12T12:53:16.097Z,100191.28
2023-01-12T12:55:44.943Z,100190.19
2023-01-12T12:58:28.880Z,100182.13
2023-01-12T13:01:45.026Z,100180.31
2023-01-12T13:04:14.575Z,100181.44
2023-01-12T13:06:47.036Z,100175.56
2023-01-12T13:09:37.361Z,100180.59
2023-01-12T13:12:23.378Z,100182.41
2023-01-12T13:15:23.659Z,100176.16
2023-01-12T13:17:53.897Z,100175.19
2023-01-12T13:20:43.833Z,100176.84
2023-01-12T13:23:43.267Z,100171.56
2023-01-12T13:26:37.985Z,100174.22
2023-01-12T13:29:40.503Z,100172.41
2023-01-12T13:32:44.894Z,100157.38
2023-01-12T13:35:57.617Z,100159.75
2023-01-12T13:38:38.425Z,100158.09
2023-01-12T13:41:17.800Z,100159.34
2023-01-12T13:43:51.300Z,100159.75
2023-01-12T13:46:21.535Z,100162.38
2023-01-12T13:48:51.063Z,100159.06
2023-01-12T13:51:22.319Z,100162.53
2023-01-12T13:54:00.218Z,100159.75
2023-01-12T13:56:28.148Z,100158.81
2023-01-12T13:59:01.813Z,100156.16
2023-01-12T14:01:33.932Z,100151.72
2023-01-12T14:04:20.365Z,100150.88
2023-01-12T14:06:58.882Z,100150.59
2023-01-12T14:09:35.993Z,100153.53
2023-01-12T14:12:25.101Z,100155.19
2023-01-12T14:15:30.364Z,100143.06
2023-01-12T14:18:04.115Z,100151.97
2023-01-12T14:20:32.072Z,100149.19
2023-01-12T14:23:17.979Z,100147.53
2023-01-12T14:25:47.551Z,100141.41
2023-01-12T14:28:18.488Z,100142.25
2023-01-12T14:30:48.882Z,100147.53
2023-01-12T14:33:21.524Z,100146.81
2023-01-12T14:35:52.149Z,100140.84
2023-01-12T14:38:21.899Z,100145.16
2023-01-12T14:40:54.519Z,100140.56
2023-01-12T14:43:39.658Z,100138.75
2023-01-12T14:46:25.300Z,100140.44
2023-01-12T14:49:01.640Z,100141.16
2023-01-12T14:51:33.945Z,100134.75
2023-01-12T14:54:15.967Z,100137.53
2023-01-12T14:56:50.379Z,100127.13
2023-01-12T14:59:22.703Z,100132.50
2023-01-12T15:01:51.267Z,100122.78
2023-01-12T15:04:21.016Z,100121.13
2023-01-12T15:06:49.108Z,100123.06
2023-01-12T15:09:29.177Z,100114.47
2023-01-12T15:11:58.445Z,100124.03
2023-01-12T15:14:29.061Z,100122.22
2023-01-12T15:17:14.161Z,100108.34
2023-01-12T15:19:59.413Z,100117.25
2023-01-12T15:22:46.280Z,100116.41
2023-01-12T15:25:33.177Z,100119.16
2023-01-12T15:28:02.786Z,100123.59
2023-01-12T15:30:31.146Z,100118.19
2023-01-12T15:32:58.876Z,100119.88
2023-01-12T15:35:28.071Z,100110.25
2023-01-12T15:37:57.161Z,100114.72
2023-01-12T15:40:27.083Z,100108.59
2023-01-12T15:42:55.220Z,100107.78
2023-01-12T15:45:30.796Z,100107.78
2023-01-12T15:47:58.553Z,100114.72
2023-01-12T15:50:26.288Z,100105.13
2023-01-12T15:52:54.081Z,100111.13
2023-01-12T15:55:23.549Z,100115.28
2023-01-12T15:57:52.294Z,100109.19
2023-01-12T16:00:22.078Z,100110.84
2023-01-12T16:02:52.073Z,100103.91
2023-01-12T16:05:21.957Z,100103.91
2023-01-12T16:07:49.662Z,100107.22
2023-01-12T16:10:18.278Z,100119.44
2023-01-12T16:12:47.880Z,100104.72
2023-01-12T16:15:17.812Z,100104.72
2023-01-12T16:17:45.527Z,100096.94
2023-01-12T16:20:16.801Z,100091.53
2023-01-12T16:22:45.079Z,100097.34
2023-01-12T16:25:12.880Z,100086.69
2023-01-12T16:27:41.214Z,100079.84
2023-01-12T16:30:11.301Z,100089.44
2023-01-12T16:32:39.379Z,100087.09
2023-01-12T16:35:07.133Z,100087.63
2023-01-12T16:37:36.221Z,100093.75
2023-01-12T16:40:05.353Z,100094.44
2023-01-12T16:42:33.047Z,100102.38
2023-01-12T16:45:00.931Z,100092.78
2023-01-12T16:47:28.643Z,100087.63
2023-01-12T16:49:56.355Z,100108.19
2023-01-12T16:52:24.183Z,100099.31
2023-01-12T16:54:53.352Z,100086.94
2023-01-12T16:57:21.021Z,100104.44
2023-01-12T16:59:49.632Z,100099.16
2023-01-12T17:02:19.156Z,100101.66
2023-01-12T17:04:49.040Z,100093.03
2023-01-12T17:07:16.892Z,100088.47
2023-01-12T17:09:44.885Z,100088.34
2023-01-12T17:12:14.066Z,100087.63
2023-01-12T17:14:41.983Z,100088.47
2023-01-12T17:17:11.181Z,100098.19
2023-01-12T17:19:42.637Z,100091.09
2023-01-12T17:22:11.028Z,100085.81
2023-01-12T17:24:40.410Z,100095.53
2023-01-12T17:27:09.385Z,100097.34
2023-01-12T17:29:38.799Z,100097.25
2023-01-12T17:32:08.371Z,100094.44
2023-01-12T17:34:37.788Z,100095.28
2023-01-12T17:37:08.251Z,100091.09
2023-01-12T17:39:36.535Z,100091.09
2023-01-12T17:42:24.488Z,100093.75
2023-01-12T17:44:53.738Z,100096.38
2023-01-12T17:47:21.451Z,100097.78
2023-01-12T17:49:49.164Z,100092.66
2023-01-12T17:52:18.056Z,100095.16
2023-01-12T17:54:45.787Z,100082.91
2023-01-12T17:57:13.662Z,100091.81
2023-01-12T17:59:41.467Z,100106.69
2023-01-12T18:02:11.880Z,100094.03
2023-01-12T18:04:39.600Z,100095.69
2023-01-12T18:07:07.264Z,100099.31
2023-01-12T18:09:36.772Z,100101.81
2023-01-12T18:12:05.158Z,100106.13
2023-01-12T18:14:33.331Z,100105.16
2023-01-12T18:17:01.075Z,100105.31
2023-01-12T18:19:30.179Z,100097.50
2023-01-12T18:21:57.971Z,100099.19
2023-01-12T18:24:25.895Z,100095.00
2023-01-12T18:26:53.623Z,100100.13
2023-01-12T18:29:21.403Z,100095.81
2023-01-12T18:31:49.046Z,100099.19
2023-01-12T18:34:18.371Z,100095.56
2023-01-12T18:36:47.715Z,100088.88
2023-01-12T18:39:17.172Z,100085.25
2023-01-12T18:42:02.602Z,100083.75
2023-01-12T18:44:31.162Z,100080.28
2023-01-12T18:47:16.945Z,100090.97
2023-01-12T18:49:45.895Z,100087.38
2023-01-12T18:52:48.336Z,100082.09
2023-01-12T18:55:16.200Z,100088.59
2023-01-12T18:57:43.877Z,100087.50
2023-01-12T19:00:16.823Z,100096.13
2023-01-12T19:02:44.703Z,100083.91
2023-01-12T19:05:19.750Z,100094.16
2023-01-12T19:08:04.532Z,100086.09
2023-01-12T19:10:34.048Z,100091.38
2023-01-12T19:13:19.408Z,100088.75
2023-01-12T19:16:04.595Z,100091.53
2023-01-12T19:18:32.384Z,100083.59
2023-01-12T19:21:29.697Z,100095.81
2023-01-12T19:24:16.055Z,100101.81
2023-01-12T19:27:01.546Z,100112.38
2023-01-12T19:29:29.236Z,100100.28
2023-01-12T19:31:56.874Z,100095.81
2023-01-12T19:34:25.663Z,100099.03
2023-01-12T19:36:53.362Z,100087.66
2023-01-12T19:39:34.308Z,100091.13
2023-01-12T19:42:19.332Z,100103.19
2023-01-12T19:44:47.050Z,100086.66
2023-01-12T19:47:14.815Z,100076.38
2023-01-12T19:49:42.547Z,100082.38
2023-01-12T19:52:11.097Z,100069.16
2023-01-12T19:54:40.187Z,100067.50
2023-01-12T19:57:07.928Z,100070.16
2023-01-12T19:59:35.700Z,100064.00
2023-01-12T20:02:03.841Z,100063.88
2023-01-12T20:04:31.535Z,100075.28
2023-01-12T20:06:59.702Z,100067.63
2023-01-12T20:09:27.466Z,100065.81
2023-01-12T20:11:56.627Z,100071.38
2023-01-12T20:14:24.644Z,100048.03
2023-01-12T20:16:52.352Z,100046.94
2023-01-12T20:19:20.559Z,100040.53
2023-01-12T20:21:48.299Z,100051.91
2023-01-12T20:24:16.334Z,100041.34
2023-01-12T20:26:44.027Z,100051.91
2023-01-12T20:29:13.189Z,100045.94
2023-01-12T20:31:41.226Z,100045.94
2023-01-12T20:34:09.019Z,100046.63
2023-01-12T20:36:38.494Z,100059.84
2023-01-12T20:39:06.481Z,100053.72
2023-01-12T20:41:34.223Z,100052.06
2023-01-12T20:44:02.050Z,100060.66
2023-01-12T20:46:31.244Z,100053.59
2023-01-12T20:48:59.410Z,100039.69
2023-01-12T20:51:27.074Z,100024.69
2023-01-12T20:53:54.707Z,100034.13
2023-01-12T20:56:24.543Z,100031.63
2023-01-12T20:58:52.315Z,100043.84
2023-01-12T21:01:20.220Z,100040.22
2023-01-12T21:03:49.317Z,100043.75
2023-01-12T21:06:18.362Z,100030.66
2023-01-12T21:08:47.672Z,100034.94
2023-01-12T21:11:16.809Z,100033.19
2023-01-12T21:13:44.897Z,100040.13
2023-01-12T21:16:14.491Z,100035.09
2023-01-12T21:18:42.914Z,100031.91
2023-01-12T21:21:12.527Z,100027.63
2023-01-12T21:23:40.184Z,100015.25
2023-01-12T21:26:08.470Z,100015.38
2023-01-12T21:28:38.407Z,100026.06
2023-01-12T21:31:08.368Z,100006.47
2023-01-12T21:33:36.526Z,100008.56
2023-01-12T21:36:05.217Z,100002.19
2023-01-12T21:38:34.406Z,100007.59
2023-01-12T21:41:03.393Z,99998.56
2023-01-12T21:43:31.279Z,99995.22
2023-01-12T21:46:04.941Z,100004.94
2023-01-12T21:48:32.817Z,99995.22
2023-01-12T21:51:04.621Z,99996.34
2023-01-12T21:53:32.343Z,99996.34
2023-01-12T21:56:03.156Z,99999.66
2023-01-12T21:58:33.175Z,99981.19
2023-01-12T22:01:01.308Z,99988.00
2023-01-12T22:03:29.835Z,99986.34
2023-01-12T22:05:58.101Z,99994.94
2023-01-12T22:08:25.846Z,99992.47
2023-01-12T22:10:53.666Z,99996.91
2023-01-12T22:13:22.833Z,99993.41
2023-01-12T22:15:52.127Z,99987.19
2023-01-12T22:18:20.911Z,99979.13
2023-01-12T22:20:49.519Z,99991.34
2023-01-12T22:23:17.190Z,99971.03
2023-01-12T22:25:44.863Z,99980.63
2023-01-12T22:28:12.561Z,99979.66
2023-01-12T22:30:43.137Z,99980.78
2023-01-12T22:33:11.722Z,99981.59
2023-01-12T22:35:39.588Z,100030.78
2023-01-12T22:38:07.314Z,100025.50
2023-01-12T22:40:35.050Z,100017.16
2023-01-12T22:43:20.403Z,100018.16
2023-01-12T22:45:50.617Z,100015.50
2023-01-12T22:48:18.350Z,100004.13
2023-01-12T22:50:47.437Z,100002.44
2023-01-12T22:53:15.227Z,100010.53
2023-01-12T22:55:43.005Z,100017.47
2023-01-12T22:58:10.747Z,100021.50
2023-01-12T23:00:39.728Z,100044.44
2023-01-12T23:03:10.805Z,100041.66
2023-01-12T23:05:45.708Z,100063.47
2023-01-12T23:08:14.420Z,100053.19
2023-01-12T23:10:42.385Z,100049.72
2023-01-12T23:13:18.892Z,100051.63
2023-01-12T23:15:48.475Z,100044.00
2023-01-12T23:18:18.886Z,100051.09
2023-01-12T23:20:47.251Z,100059.00
2023-01-12T23:23:17.548Z,100053.06
2023-01-12T23:25:45.825Z,100049.44
2023-01-12T23:28:14.132Z,100047.19
2023-01-12T23:30:43.400Z,100044.97
2023-01-12T23:33:11.423Z,100054.84
2023-01-12T23:35:41.894Z,100054.16
2023-01-12T23:38:15.248Z,100056.34
2023-01-12T23:40:43.039Z,100060.25
2023-01-12T23:43:10.668Z,100044.28
2023-01-12T23:45:38.383Z,100063.03
2023-01-12T23:48:07.799Z,100060.25
2023-01-12T23:50:35.585Z,100048.97
2023-01-12T23:53:04.751Z,100049.94
2023-01-12T23:55:32.410Z,100057.88
2023-01-12T23:58:00.071Z,100054.41
